createdAt,value
2017-08-11T00:04:21.791Z,100608
2017-08-11T00:09:28.355Z,100602
2017-08-11T00:14:31.822Z,100608
2017-08-11T00:19:35.284Z,100601
2017-08-11T00:24:38.468Z,100578
2017-08-11T00:29:42.561Z,100578
2017-08-11T00:34:45.764Z,100589
2017-08-11T00:45:25.051Z,100570
2017-08-11T00:50:29.278Z,100592
2017-08-11T00:55:33.098Z,100596
2017-08-11T01:00:36.609Z,100589
2017-08-11T01:05:40.330Z,100583
2017-08-11T01:10:43.515Z,100592
2017-08-11T01:15:47.361Z,100629
2017-08-11T01:20:51.266Z,100605
2017-08-11T01:25:54.810Z,100587
2017-08-11T01:30:58.094Z,100568
2017-08-11T01:36:01.452Z,100562
2017-08-11T01:41:05.653Z,100531
2017-08-11T01:46:19.522Z,100536
2017-08-11T01:56:57.522Z,100545
2017-08-11T02:02:00.728Z,100532
2017-08-11T02:07:03.895Z,100536
2017-08-11T02:12:07.085Z,100543
2017-08-11T02:17:11.129Z,100548
2017-08-11T02:22:15.058Z,100544
2017-08-11T02:27:18.237Z,100527
2017-08-11T02:32:21.416Z,100544
2017-08-11T02:37:24.595Z,100536
2017-08-11T02:42:27.780Z,100538
2017-08-11T02:47:30.965Z,100515
2017-08-11T02:52:34.926Z,100514
2017-08-11T02:57:38.220Z,100493
2017-08-11T03:02:42.165Z,100536
2017-08-11T03:07:45.345Z,100525
2017-08-11T03:12:48.613Z,100514
2017-08-11T03:17:51.805Z,100468
2017-08-11T03:22:55.003Z,100464
2017-08-11T03:27:58.189Z,100461
2017-08-11T03:33:01.406Z,100480
2017-08-11T03:38:04.582Z,100479
2017-08-11T03:43:08.536Z,100465
2017-08-11T03:48:11.717Z,100476
2017-08-11T03:53:15.672Z,100481
2017-08-11T03:58:18.956Z,100471
2017-08-11T04:03:22.155Z,100482
2017-08-11T04:08:26.209Z,100477
2017-08-11T04:13:29.399Z,100476
2017-08-11T04:18:33.079Z,100472
2017-08-11T04:23:36.478Z,100457
2017-08-11T04:28:39.684Z,100450
2017-08-11T04:33:42.889Z,100433
2017-08-11T04:38:46.088Z,100416
2017-08-11T04:43:49.251Z,100409
2017-08-11T04:48:53.217Z,100416
2017-08-11T04:53:56.501Z,100414
2017-08-11T04:58:59.859Z,100405
2017-08-11T05:04:03.048Z,100404
2017-08-11T05:09:07.671Z,100402
2017-08-11T05:14:10.896Z,100413
2017-08-11T05:19:14.086Z,100411
2017-08-11T05:24:17.332Z,100420
2017-08-11T05:29:20.509Z,100434
2017-08-11T05:34:23.724Z,100448
2017-08-11T05:39:26.926Z,100453
2017-08-11T05:44:30.158Z,100454
2017-08-11T05:49:33.360Z,100449
2017-08-11T05:54:36.558Z,100455
2017-08-11T05:59:39.753Z,100462
2017-08-11T06:04:42.946Z,100457
2017-08-11T06:09:46.133Z,100456
2017-08-11T06:14:49.330Z,100468
2017-08-11T06:19:53.323Z,100466
2017-08-11T06:24:56.505Z,100468
2017-08-11T06:29:59.686Z,100465
2017-08-11T06:35:02.877Z,100449
2017-08-11T06:40:06.835Z,100459
2017-08-11T06:45:10.116Z,100450
2017-08-11T06:50:14.057Z,100449
2017-08-11T06:55:17.240Z,100444
2017-08-11T07:00:21.392Z,100446
2017-08-11T07:05:24.604Z,100452
2017-08-11T07:10:27.829Z,100438
2017-08-11T07:15:31.026Z,100428
2017-08-11T07:20:34.214Z,100420
2017-08-11T07:25:37.390Z,100422
2017-08-11T07:30:40.583Z,100431
2017-08-11T07:35:43.790Z,100415
2017-08-11T07:40:47.035Z,100416
2017-08-11T07:45:50.962Z,100420
2017-08-11T07:50:54.225Z,100414
2017-08-11T07:55:57.414Z,100404
2017-08-11T08:01:00.608Z,100399
2017-08-11T08:06:03.801Z,100414
2017-08-11T08:11:07.007Z,100423
2017-08-11T08:16:10.204Z,100431
2017-08-11T08:21:14.160Z,100418
2017-08-11T08:26:17.465Z,100415
2017-08-11T08:31:20.665Z,100417
2017-08-11T08:36:23.890Z,100429
2017-08-11T08:41:27.082Z,100445
2017-08-11T08:46:30.270Z,100454
2017-08-11T08:51:33.458Z,100469
2017-08-11T08:56:37.465Z,100463
2017-08-11T09:01:40.714Z,100470
2017-08-11T09:06:44.645Z,100462
2017-08-11T09:11:47.842Z,100449
2017-08-11T09:16:51.020Z,100435
2017-08-11T09:21:54.211Z,100435
2017-08-11T09:27:15.402Z,100440
2017-08-11T09:32:46.207Z,100436
2017-08-11T09:37:49.397Z,100440
2017-08-11T09:42:52.608Z,100438
2017-08-11T09:47:55.796Z,100441
2017-08-11T09:52:59.005Z,100434
2017-08-11T09:58:02.182Z,100448
2017-08-11T10:03:05.385Z,100446
2017-08-11T10:08:08.560Z,100444
2017-08-11T10:13:12.543Z,100452
2017-08-11T10:18:15.726Z,100453
2017-08-11T10:23:19.050Z,100447
2017-08-11T10:28:22.243Z,100440
2017-08-11T10:33:25.442Z,100438
2017-08-11T10:38:28.602Z,100438
2017-08-11T10:43:31.800Z,100444
2017-08-11T10:48:35.005Z,100445
2017-08-11T10:53:38.178Z,100453
2017-08-11T10:58:41.342Z,100427
2017-08-11T11:03:44.521Z,100423
2017-08-11T11:08:47.718Z,100425
2017-08-11T11:13:50.923Z,100423
2017-08-11T11:18:54.245Z,100406
2017-08-11T11:23:57.431Z,100400
2017-08-11T11:29:00.644Z,100376
2017-08-11T11:34:03.826Z,100366
2017-08-11T11:39:07.000Z,100333
2017-08-11T11:44:10.958Z,100317
2017-08-11T11:49:14.142Z,100324
2017-08-11T11:54:18.113Z,100348
2017-08-11T11:59:21.390Z,100345
2017-08-11T12:04:25.278Z,100358
2017-08-11T12:09:28.463Z,100371
2017-08-11T12:14:31.650Z,100388
2017-08-11T12:19:34.818Z,100400
2017-08-11T12:24:37.990Z,100407
2017-08-11T12:29:41.179Z,100420
2017-08-11T12:34:44.370Z,100433
2017-08-11T12:39:47.577Z,100442
2017-08-11T12:44:50.785Z,100443
2017-08-11T12:49:53.991Z,100453
2017-08-11T12:54:57.176Z,100448
2017-08-11T13:00:01.133Z,100436
2017-08-11T13:05:04.327Z,100433
2017-08-11T13:10:07.535Z,100430
2017-08-11T13:15:10.723Z,100419
2017-08-11T13:20:14.683Z,100413
2017-08-11T13:25:17.865Z,100420
2017-08-11T13:30:21.172Z,100420
2017-08-11T13:35:25.142Z,100426
2017-08-11T13:40:28.329Z,100437
2017-08-11T13:45:31.554Z,100443
2017-08-11T13:50:34.737Z,100446
2017-08-11T13:55:37.995Z,100447
2017-08-11T14:00:41.195Z,100443
2017-08-11T14:05:44.381Z,100443
2017-08-11T14:10:47.567Z,100440
2017-08-11T14:15:50.757Z,100440
2017-08-11T14:20:53.931Z,100446
2017-08-11T14:25:57.133Z,100439
2017-08-11T14:31:00.335Z,100448
2017-08-11T14:36:03.593Z,100451
2017-08-11T14:41:06.798Z,100442
2017-08-11T14:46:09.986Z,100439
2017-08-11T14:51:13.897Z,100445
2017-08-11T14:56:17.840Z,100459
2017-08-11T15:01:21.064Z,100446
2017-08-11T15:06:24.272Z,100460
2017-08-11T15:11:27.455Z,100466
2017-08-11T15:16:31.481Z,100465
2017-08-11T15:21:35.431Z,100474
2017-08-11T15:26:38.650Z,100465
2017-08-11T15:31:41.838Z,100475
2017-08-11T15:36:45.026Z,100472
2017-08-11T15:41:48.280Z,100472
2017-08-11T15:46:51.473Z,100472
2017-08-11T15:51:54.702Z,100472
2017-08-11T15:56:57.922Z,100482
2017-08-11T16:02:01.509Z,100482
2017-08-11T16:07:04.977Z,100474
2017-08-11T16:12:08.182Z,100481
2017-08-11T16:17:11.350Z,100475
2017-08-11T16:22:14.655Z,100476
2017-08-11T16:27:17.869Z,100476
2017-08-11T16:32:21.070Z,100469
2017-08-11T16:37:24.309Z,100471
2017-08-11T16:42:27.717Z,100471
2017-08-11T16:47:30.910Z,100476
2017-08-11T16:52:34.099Z,100467
2017-08-11T16:57:37.313Z,100472
2017-08-11T17:02:40.518Z,100468
2017-08-11T17:07:43.711Z,100461
2017-08-11T17:12:46.912Z,100473
2017-08-11T17:17:50.097Z,100466
2017-08-11T17:22:53.298Z,100474
2017-08-11T17:27:57.314Z,100467
2017-08-11T17:33:01.275Z,100472
2017-08-11T17:38:05.464Z,100461
2017-08-11T17:43:08.762Z,100463
2017-08-11T17:48:11.947Z,100464
2017-08-11T17:53:15.140Z,100481
2017-08-11T17:58:18.321Z,100477
2017-08-11T18:03:21.555Z,100485
2017-08-11T18:08:24.797Z,100484
2017-08-11T18:13:27.985Z,100496
2017-08-11T18:18:31.188Z,100498
2017-08-11T18:23:34.381Z,100496
2017-08-11T18:28:37.868Z,100503
2017-08-11T18:33:41.336Z,100500
2017-08-11T18:38:44.510Z,100507
2017-08-11T18:43:47.761Z,100517
2017-08-11T18:48:50.980Z,100524
2017-08-11T18:53:54.938Z,100530
2017-08-11T18:58:58.661Z,100527
2017-08-11T19:04:02.080Z,100535
2017-08-11T19:09:05.517Z,100549
2017-08-11T19:14:08.711Z,100560
2017-08-11T19:19:11.925Z,100576
2017-08-11T19:24:15.326Z,100578
2017-08-11T19:29:18.570Z,100580
2017-08-11T19:34:21.816Z,100582
2017-08-11T19:39:25.012Z,100580
2017-08-11T19:44:28.993Z,100591
2017-08-11T19:49:32.205Z,100593
2017-08-11T19:54:35.382Z,100580
2017-08-11T19:59:38.601Z,100588
2017-08-11T20:04:41.789Z,100587
2017-08-11T20:09:44.965Z,100590
2017-08-11T20:20:23.614Z,100589
2017-08-11T20:25:27.208Z,100591
2017-08-11T20:30:30.723Z,100588
2017-08-11T20:35:33.930Z,100583
2017-08-11T20:40:37.721Z,100574
2017-08-11T20:45:41.100Z,100572
2017-08-11T20:50:45.366Z,100575
2017-08-11T20:55:48.566Z,100563
2017-08-11T21:00:51.751Z,100563
2017-08-11T21:05:55.168Z,100564
2017-08-11T21:10:59.068Z,100558
2017-08-11T21:16:02.400Z,100569
2017-08-11T21:21:06.140Z,100570
2017-08-11T21:26:09.729Z,100572
2017-08-11T21:31:12.941Z,100565
2017-08-11T21:36:16.127Z,100586
2017-08-11T21:41:20.091Z,100582
2017-08-11T21:46:23.299Z,100576
2017-08-11T21:51:26.491Z,100583
2017-08-11T21:56:29.680Z,100577
2017-08-11T22:01:33.681Z,100580
2017-08-11T22:06:36.865Z,100570
2017-08-11T22:11:40.090Z,100569
2017-08-11T22:16:43.293Z,100581
2017-08-11T22:21:46.489Z,100557
2017-08-11T22:26:49.694Z,100566
2017-08-11T22:31:52.950Z,100556
2017-08-11T22:36:56.173Z,100561
2017-08-11T22:41:59.464Z,100560
2017-08-11T22:47:03.425Z,100566
2017-08-11T22:52:06.686Z,100567
2017-08-11T22:57:09.880Z,100562
2017-08-11T23:02:13.837Z,100551
2017-08-11T23:07:17.038Z,100557
2017-08-11T23:12:20.210Z,100551
2017-08-11T23:17:23.436Z,100550
2017-08-11T23:22:27.419Z,100546
2017-08-11T23:27:30.634Z,100545
2017-08-11T23:32:33.839Z,100533
2017-08-11T23:37:37.015Z,100549
2017-08-11T23:42:40.194Z,100539
2017-08-11T23:47:44.148Z,100542
2017-08-11T23:52:47.332Z,100540
2017-08-11T23:57:50.520Z,100527
